Republic, Michigan
Current Conditions -  °F | °C
As of 11:37 PM on Saturday 22 Nov 2014 (Local Time) from KSAW Reporting Station
Overcast Overcast  
Wind Chill: 25°   Ceiling: 800
Heat Index: 33°   Visibility: 7mi
Dew Point: 31°   Wind: 9mph
Humidity: 93%   Direction: 210°SSW
Pressure: 29.71"   Gusts: NA
Location:  46.41°N, 87.98°W
Report Text: KSAW 230437Z AUTO 21008KT 7SM OVC008 01/00 A2971 RMK AO2 T00051005
Loading
Personal Weather Stations






























Interactive Weather Map New forecast layout! Learn more

10-Day Weather Forecast

Advertisements
Track Severe Weather on mobile